createdAt,value
2022-10-08T00:12:20.672Z,3.3
2022-10-08T00:27:29.895Z,2.3
2022-10-08T00:42:39.208Z,2.9
2022-10-08T00:57:48.184Z,2.2
2022-10-08T01:12:58.166Z,2.6
2022-10-08T01:28:08.411Z,2.6
2022-10-08T01:43:18.251Z,2.8
2022-10-08T01:58:27.343Z,2.9
2022-10-08T02:13:36.722Z,3.5
2022-10-08T02:28:46.383Z,2.9
2022-10-08T02:43:56.334Z,3.6
2022-10-08T02:59:05.943Z,3.3
2022-10-08T03:14:15.709Z,3.7
2022-10-08T03:29:25.329Z,2.9
2022-10-08T03:44:34.829Z,3.2
2022-10-08T03:59:44.175Z,3.2
2022-10-08T04:14:53.444Z,4
2022-10-08T04:30:02.885Z,4.1
2022-10-08T04:45:12.328Z,4.9
2022-10-08T05:00:22.316Z,4.8
2022-10-08T05:15:32.258Z,5.4
2022-10-08T05:30:42.411Z,6.2
2022-10-08T05:45:52.150Z,6.9
2022-10-08T06:01:01.697Z,6.7
2022-10-08T06:16:12.481Z,6.9
2022-10-08T06:31:22.323Z,6.9
2022-10-08T06:46:32.147Z,5.8
2022-10-08T07:01:42.169Z,7.4
2022-10-08T07:16:52.667Z,6.1
2022-10-08T07:32:03.038Z,4.8
2022-10-08T07:47:12.214Z,4.6
2022-10-08T08:02:22.259Z,6
2022-10-08T08:17:32.412Z,6.7
2022-10-08T08:32:42.052Z,6.8
2022-10-08T08:47:51.956Z,6.9
2022-10-08T09:03:01.583Z,8.3
2022-10-08T09:18:12.797Z,6.6
2022-10-08T09:33:22.497Z,5.4
2022-10-08T09:48:32.273Z,5
2022-10-08T10:03:42.780Z,4.8
2022-10-08T10:18:52.927Z,4.1
2022-10-08T10:34:02.653Z,3
2022-10-08T10:49:12.975Z,3.7
2022-10-08T11:04:23.049Z,2.8
2022-10-08T11:19:32.481Z,3
2022-10-08T11:34:41.679Z,1.5
2022-10-08T11:49:50.787Z,1.8
2022-10-08T12:05:00.347Z,1.7
2022-10-08T12:20:13.228Z,2.4
2022-10-08T12:35:24.461Z,3
2022-10-08T12:50:35.586Z,2.3
2022-10-08T13:05:45.811Z,1.8
2022-10-08T13:20:55.991Z,2
2022-10-08T13:36:06.465Z,2.4
2022-10-08T13:51:16.285Z,1.2
2022-10-08T14:06:25.754Z,1.3
2022-10-08T14:21:34.786Z,1.1
2022-10-08T14:36:44.977Z,1
2022-10-08T14:51:54.667Z,1.1
2022-10-08T15:07:04.135Z,1.5
2022-10-08T15:22:13.523Z,1.9
2022-10-08T15:37:23.175Z,2.1
2022-10-08T15:52:32.839Z,1.4
2022-10-08T16:07:42.360Z,1.8
2022-10-08T16:22:52.000Z,1.8
2022-10-08T16:38:01.459Z,1.9
2022-10-08T16:53:16.001Z,3.1
2022-10-08T17:08:25.683Z,4.9
2022-10-08T17:23:34.814Z,6.7
2022-10-08T17:38:44.545Z,4.1
2022-10-08T17:53:54.590Z,5.3
2022-10-08T18:09:03.163Z,4.6
2022-10-08T18:24:13.000Z,6.1
2022-10-08T18:39:28.890Z,3.9
2022-10-08T18:54:38.718Z,3.5
2022-10-08T19:09:47.973Z,3.2
2022-10-08T19:24:57.307Z,3.8
2022-10-08T19:40:06.750Z,2.7
2022-10-08T19:55:16.268Z,4.7
2022-10-08T20:10:25.987Z,6.2
2022-10-08T20:25:35.588Z,3.3
2022-10-08T20:40:44.991Z,4.1
2022-10-08T20:55:54.425Z,3.7
2022-10-08T21:11:03.921Z,4.1
2022-10-08T21:26:13.152Z,3.3
2022-10-08T21:41:22.437Z,2.9
2022-10-08T21:56:31.699Z,3.1
2022-10-08T22:11:41.093Z,3.2
2022-10-08T22:26:50.226Z,4.5
2022-10-08T22:41:59.705Z,4
2022-10-08T22:57:09.303Z,4
2022-10-08T23:12:18.269Z,3.2
2022-10-08T23:27:27.608Z,4.1
2022-10-08T23:42:36.977Z,3.8
2022-10-08T23:57:46.568Z,3.2
